sensor_id;sensor_type;location;lat;lon;timestamp;pressure;altitude;pressure_sealevel;temperature;humidity
38630;BME280;24384;51.988;4.644;2023-04-22T00:02:01;100914.84;;;8.74;90.60
38630;BME280;24384;51.988;4.644;2023-04-22T00:04:28;100905.41;;;8.66;92.93
38630;BME280;24384;51.988;4.644;2023-04-22T00:06:53;100912.69;;;8.54;93.14
38630;BME280;24384;51.988;4.644;2023-04-22T00:09:19;100908.25;;;8.56;94.03
38630;BME280;24384;51.988;4.644;2023-04-22T00:11:44;100911.50;;;8.66;93.14
38630;BME280;24384;51.988;4.644;2023-04-22T00:14:09;100912.75;;;8.51;92.91
38630;BME280;24384;51.988;4.644;2023-04-22T00:16:35;100911.34;;;8.35;93.49
38630;BME280;24384;51.988;4.644;2023-04-22T00:19:00;100924.06;;;8.14;92.62
38630;BME280;24384;51.988;4.644;2023-04-22T00:21:25;100923.28;;;8.09;93.67
38630;BME280;24384;51.988;4.644;2023-04-22T00:23:51;100921.63;;;8.05;94.34
38630;BME280;24384;51.988;4.644;2023-04-22T00:26:16;100927.84;;;8.01;93.53
38630;BME280;24384;51.988;4.644;2023-04-22T00:28:41;100929.06;;;7.83;93.56
38630;BME280;24384;51.988;4.644;2023-04-22T00:31:06;100926.75;;;7.67;93.97
38630;BME280;24384;51.988;4.644;2023-04-22T00:33:32;100919.97;;;7.57;93.30
38630;BME280;24384;51.988;4.644;2023-04-22T00:35:57;100918.34;;;7.50;94.02
38630;BME280;24384;51.988;4.644;2023-04-22T00:38:22;100915.47;;;7.62;95.28
38630;BME280;24384;51.988;4.644;2023-04-22T00:40:48;100919.81;;;7.65;94.89
38630;BME280;24384;51.988;4.644;2023-04-22T00:43:13;100912.94;;;7.58;94.12
38630;BME280;24384;51.988;4.644;2023-04-22T00:45:40;100917.63;;;7.42;93.68
38630;BME280;24384;51.988;4.644;2023-04-22T00:48:08;100917.06;;;7.24;94.51
38630;BME280;24384;51.988;4.644;2023-04-22T00:50:34;100911.00;;;7.21;95.86
38630;BME280;24384;51.988;4.644;2023-04-22T00:52:59;100914.28;;;7.32;95.72
38630;BME280;24384;51.988;4.644;2023-04-22T00:55:24;100922.06;;;7.38;93.66
38630;BME280;24384;51.988;4.644;2023-04-22T00:57:49;100930.13;;;7.27;92.71
38630;BME280;24384;51.988;4.644;2023-04-22T01:00:15;100930.03;;;7.32;94.52
38630;BME280;24384;51.988;4.644;2023-04-22T01:02:41;100930.94;;;7.31;95.40
38630;BME280;24384;51.988;4.644;2023-04-22T01:05:06;100932.59;;;7.35;95.20
38630;BME280;24384;51.988;4.644;2023-04-22T01:07:33;100930.94;;;7.31;94.72
38630;BME280;24384;51.988;4.644;2023-04-22T01:09:59;100933.44;;;7.39;93.96
38630;BME280;24384;51.988;4.644;2023-04-22T01:12:24;100929.63;;;7.55;95.53
38630;BME280;24384;51.988;4.644;2023-04-22T01:14:49;100931.41;;;7.53;94.66
38630;BME280;24384;51.988;4.644;2023-04-22T01:17:15;100922.81;;;7.46;95.12
38630;BME280;24384;51.988;4.644;2023-04-22T01:19:40;100925.53;;;7.40;95.30
38630;BME280;24384;51.988;4.644;2023-04-22T01:22:07;100915.09;;;7.37;93.47
38630;BME280;24384;51.988;4.644;2023-04-22T01:24:34;100917.94;;;7.25;92.73
38630;BME280;24384;51.988;4.644;2023-04-22T01:27:00;100918.00;;;7.22;94.29
38630;BME280;24384;51.988;4.644;2023-04-22T01:29:25;100919.63;;;7.27;94.50
38630;BME280;24384;51.988;4.644;2023-04-22T01:31:51;100924.06;;;7.24;94.49
38630;BME280;24384;51.988;4.644;2023-04-22T01:34:16;100919.81;;;7.16;94.48
38630;BME280;24384;51.988;4.644;2023-04-22T01:36:42;100914.88;;;6.99;93.03
38630;BME280;24384;51.988;4.644;2023-04-22T01:39:09;100918.47;;;6.94;93.98
38630;BME280;24384;51.988;4.644;2023-04-22T01:41:34;100917.50;;;6.99;96.56
38630;BME280;24384;51.988;4.644;2023-04-22T01:43:59;100909.44;;;7.10;97.94
38630;BME280;24384;51.988;4.644;2023-04-22T01:46:28;100911.81;;;7.24;96.64
38630;BME280;24384;51.988;4.644;2023-04-22T01:48:53;100911.91;;;7.20;95.26
38630;BME280;24384;51.988;4.644;2023-04-22T01:51:18;100913.47;;;7.30;97.04
38630;BME280;24384;51.988;4.644;2023-04-22T01:53:47;100915.09;;;7.37;97.28
38630;BME280;24384;51.988;4.644;2023-04-22T01:56:13;100917.59;;;7.45;97.16
38630;BME280;24384;51.988;4.644;2023-04-22T01:58:38;100918.34;;;7.50;96.33
38630;BME280;24384;51.988;4.644;2023-04-22T02:01:04;100917.66;;;7.40;94.74
38630;BME280;24384;51.988;4.644;2023-04-22T02:03:30;100919.34;;;7.43;96.29
38630;BME280;24384;51.988;4.644;2023-04-22T02:05:55;100923.13;;;7.29;95.09
38630;BME280;24384;51.988;4.644;2023-04-22T02:08:20;100915.09;;;7.37;94.23
38630;BME280;24384;51.988;4.644;2023-04-22T02:10:45;100921.63;;;7.14;94.80
38630;BME280;24384;51.988;4.644;2023-04-22T02:13:10;100922.41;;;7.18;95.53
38630;BME280;24384;51.988;4.644;2023-04-22T02:15:36;100910.97;;;7.24;97.45
38630;BME280;24384;51.988;4.644;2023-04-22T02:18:01;100928.06;;;7.45;96.12
38630;BME280;24384;51.988;4.644;2023-04-22T02:20:26;100930.94;;;7.31;94.64
38630;BME280;24384;51.988;4.644;2023-04-22T02:22:51;100929.38;;;7.21;92.10
38630;BME280;24384;51.988;4.644;2023-04-22T02:25:17;100919.22;;;7.02;93.45
38630;BME280;24384;51.988;4.644;2023-04-22T02:27:42;100910.28;;;7.12;96.97
38630;BME280;24384;51.988;4.644;2023-04-22T02:30:07;100924.84;;;7.29;95.23
38630;BME280;24384;51.988;4.644;2023-04-22T02:32:33;100916.88;;;7.35;95.03
38630;BME280;24384;51.988;4.644;2023-04-22T02:35:00;100918.72;;;7.30;94.25
38630;BME280;24384;51.988;4.644;2023-04-22T02:37:26;100919.03;;;7.13;94.69
38630;BME280;24384;51.988;4.644;2023-04-22T02:39:51;100910.16;;;7.20;95.22
38630;BME280;24384;51.988;4.644;2023-04-22T02:42:16;100905.75;;;7.22;95.91
38630;BME280;24384;51.988;4.644;2023-04-22T02:44:41;100905.25;;;7.02;95.26
38630;BME280;24384;51.988;4.644;2023-04-22T02:47:06;100902.97;;;6.80;95.54
38630;BME280;24384;51.988;4.644;2023-04-22T02:49:32;100888.97;;;6.81;95.49
38630;BME280;24384;51.988;4.644;2023-04-22T02:51:57;100895.47;;;6.57;95.89
38630;BME280;24384;51.988;4.644;2023-04-22T02:54:22;100884.91;;;6.63;95.54
38630;BME280;24384;51.988;4.644;2023-04-22T02:56:47;100885.88;;;6.56;94.73
38630;BME280;24384;51.988;4.644;2023-04-22T02:59:12;100882.50;;;6.49;94.64
38630;BME280;24384;51.988;4.644;2023-04-22T03:01:38;100880.78;;;6.47;94.27
38630;BME280;24384;51.988;4.644;2023-04-22T03:04:03;100874.63;;;6.49;95.24
38630;BME280;24384;51.988;4.644;2023-04-22T03:06:28;100864.91;;;6.56;95.81
38630;BME280;24384;51.988;4.644;2023-04-22T03:08:53;100864.19;;;6.48;95.26
38630;BME280;24384;51.988;4.644;2023-04-22T03:11:18;100866.66;;;6.57;95.40
38630;BME280;24384;51.988;4.644;2023-04-22T03:13:43;100868.28;;;6.64;94.11
38630;BME280;24384;51.988;4.644;2023-04-22T03:16:10;100864.03;;;6.57;95.15
38630;BME280;24384;51.988;4.644;2023-04-22T03:18:35;100857.84;;;6.61;95.47
38630;BME280;24384;51.988;4.644;2023-04-22T03:21:00;100856.06;;;6.65;96.44
38630;BME280;24384;51.988;4.644;2023-04-22T03:23:25;100861.28;;;6.65;96.31
38630;BME280;24384;51.988;4.644;2023-04-22T03:25:51;100859.56;;;6.63;96.18
38630;BME280;24384;51.988;4.644;2023-04-22T03:28:16;100856.03;;;6.66;95.73
38630;BME280;24384;51.988;4.644;2023-04-22T03:30:41;100854.16;;;6.73;96.06
38630;BME280;24384;51.988;4.644;2023-04-22T03:33:06;100847.94;;;6.80;95.96
38630;BME280;24384;51.988;4.644;2023-04-22T03:35:31;100846.97;;;6.84;95.40
38630;BME280;24384;51.988;4.644;2023-04-22T03:37:57;100844.38;;;6.82;95.92
38630;BME280;24384;51.988;4.644;2023-04-22T03:40:22;100848.56;;;6.93;96.69
38630;BME280;24384;51.988;4.644;2023-04-22T03:42:47;100838.75;;;7.03;96.74
38630;BME280;24384;51.988;4.644;2023-04-22T03:45:12;100839.63;;;7.05;96.08
38630;BME280;24384;51.988;4.644;2023-04-22T03:47:37;100842.16;;;7.09;95.63
38630;BME280;24384;51.988;4.644;2023-04-22T03:50:03;100839.69;;;7.02;94.98
38630;BME280;24384;51.988;4.644;2023-04-22T03:52:28;100838.78;;;7.01;95.61
38630;BME280;24384;51.988;4.644;2023-04-22T03:54:53;100836.97;;;7.06;95.31
38630;BME280;24384;51.988;4.644;2023-04-22T03:57:18;100838.72;;;7.06;95.49
38630;BME280;24384;51.988;4.644;2023-04-22T03:59:43;100830.06;;;7.01;96.02
38630;BME280;24384;51.988;4.644;2023-04-22T04:02:08;100828.34;;;6.98;96.58
38630;BME280;24384;51.988;4.644;2023-04-22T04:04:34;100814.13;;;7.11;95.76
38630;BME280;24384;51.988;4.644;2023-04-22T04:06:59;100816.94;;;7.02;96.83
38630;BME280;24384;51.988;4.644;2023-04-22T04:09:25;100819.69;;;6.94;96.58
38630;BME280;24384;51.988;4.644;2023-04-22T04:11:50;100818.06;;;6.87;97.03
38630;BME280;24384;51.988;4.644;2023-04-22T04:14:18;100813.50;;;6.98;97.45
38630;BME280;24384;51.988;4.644;2023-04-22T04:16:43;100810.88;;;7.00;97.12
38630;BME280;24384;51.988;4.644;2023-04-22T04:19:08;100812.63;;;6.98;97.46
38630;BME280;24384;51.988;4.644;2023-04-22T04:21:33;100809.97;;;6.99;97.45
38630;BME280;24384;51.988;4.644;2023-04-22T04:23:59;100808.22;;;7.02;97.35
38630;BME280;24384;51.988;4.644;2023-04-22T04:26:24;100802.06;;;7.03;97.72
38630;BME280;24384;51.988;4.644;2023-04-22T04:28:51;100801.84;;;7.13;97.90
38630;BME280;24384;51.988;4.644;2023-04-22T04:31:16;100798.22;;;7.21;97.17
38630;BME280;24384;51.988;4.644;2023-04-22T04:33:41;100800.66;;;7.30;97.24
38630;BME280;24384;51.988;4.644;2023-04-22T04:36:07;100803.22;;;7.33;97.11
38630;BME280;24384;51.988;4.644;2023-04-22T04:38:34;100796.94;;;7.42;97.14
38630;BME280;24384;51.988;4.644;2023-04-22T04:40:59;100797.72;;;7.45;96.77
38630;BME280;24384;51.988;4.644;2023-04-22T04:43:25;100803.03;;;7.42;96.53
38630;BME280;24384;51.988;4.644;2023-04-22T04:45:51;100802.25;;;7.39;97.22
38630;BME280;24384;51.988;4.644;2023-04-22T04:48:16;100803.88;;;7.43;97.07
38630;BME280;24384;51.988;4.644;2023-04-22T04:50:44;100795.69;;;7.58;96.39
38630;BME280;24384;51.988;4.644;2023-04-22T04:53:10;100792.41;;;7.48;96.38
38630;BME280;24384;51.988;4.644;2023-04-22T04:55:36;100799.50;;;7.45;96.91
38630;BME280;24384;51.988;4.644;2023-04-22T04:58:01;100789.91;;;7.42;96.53
38630;BME280;24384;51.988;4.644;2023-04-22T05:00:26;100790.69;;;7.46;96.19
38630;BME280;24384;51.988;4.644;2023-04-22T05:02:51;100789.03;;;7.43;96.27
38630;BME280;24384;51.988;4.644;2023-04-22T05:05:16;100780.28;;;7.43;96.47
38630;BME280;24384;51.988;4.644;2023-04-22T05:07:42;100778.66;;;7.37;96.98
38630;BME280;24384;51.988;4.644;2023-04-22T05:10:07;100780.41;;;7.37;97.60
38630;BME280;24384;51.988;4.644;2023-04-22T05:12:32;100780.19;;;7.47;97.19
38630;BME280;24384;51.988;4.644;2023-04-22T05:14:58;100794.22;;;7.46;96.64
38630;BME280;24384;51.988;4.644;2023-04-22T05:17:23;100788.84;;;7.52;96.31
38630;BME280;24384;51.988;4.644;2023-04-22T05:19:48;100792.41;;;7.48;96.85
38630;BME280;24384;51.988;4.644;2023-04-22T05:22:13;100793.22;;;7.50;97.11
38630;BME280;24384;51.988;4.644;2023-04-22T05:24:39;100799.13;;;7.62;96.76
38630;BME280;24384;51.988;4.644;2023-04-22T05:27:04;100806.38;;;7.49;96.84
38630;BME280;24384;51.988;4.644;2023-04-22T05:29:29;100804.59;;;7.52;96.90
38630;BME280;24384;51.988;4.644;2023-04-22T05:31:55;100815.19;;;7.48;97.18
38630;BME280;24384;51.988;4.644;2023-04-22T05:34:22;100821.22;;;7.51;97.12
38630;BME280;24384;51.988;4.644;2023-04-22T05:36:47;100825.66;;;7.48;97.07
38630;BME280;24384;51.988;4.644;2023-04-22T05:39:12;100824.03;;;7.42;97.16
38630;BME280;24384;51.988;4.644;2023-04-22T05:41:37;100821.19;;;7.53;97.36
38630;BME280;24384;51.988;4.644;2023-04-22T05:44:02;100814.38;;;7.43;97.38
38630;BME280;24384;51.988;4.644;2023-04-22T05:46:28;100818.84;;;7.39;97.72
38630;BME280;24384;51.988;4.644;2023-04-22T05:48:53;100816.97;;;7.44;98.09
38630;BME280;24384;51.988;4.644;2023-04-22T05:51:19;100804.66;;;7.49;97.28
38630;BME280;24384;51.988;4.644;2023-04-22T05:53:45;100800.97;;;7.57;98.05
38630;BME280;24384;51.988;4.644;2023-04-22T05:56:10;100800.66;;;7.72;97.54
38630;BME280;24384;51.988;4.644;2023-04-22T05:58:35;100797.72;;;7.86;97.04
38630;BME280;24384;51.988;4.644;2023-04-22T06:01:01;100796.13;;;7.80;96.61
38630;BME280;24384;51.988;4.644;2023-04-22T06:03:26;100788.97;;;7.85;96.45
38630;BME280;24384;51.988;4.644;2023-04-22T06:05:52;100778.13;;;8.01;96.12
38630;BME280;24384;51.988;4.644;2023-04-22T06:08:17;100781.66;;;8.00;95.99
38630;BME280;24384;51.988;4.644;2023-04-22T06:10:43;100780.38;;;8.16;96.18
38630;BME280;24384;51.988;4.644;2023-04-22T06:13:08;100779.16;;;8.31;96.03
38630;BME280;24384;51.988;4.644;2023-04-22T06:15:33;100778.91;;;8.44;95.33
38630;BME280;24384;51.988;4.644;2023-04-22T06:17:59;100768.47;;;8.39;95.72
38630;BME280;24384;51.988;4.644;2023-04-22T06:20:25;100770.09;;;8.43;95.00
38630;BME280;24384;51.988;4.644;2023-04-22T06:22:50;100767.03;;;8.62;94.20
38630;BME280;24384;51.988;4.644;2023-04-22T06:25:17;100770.09;;;8.45;94.96
38630;BME280;24384;51.988;4.644;2023-04-22T06:27:42;100774.81;;;8.65;94.81
38630;BME280;24384;51.988;4.644;2023-04-22T06:30:07;100773.38;;;8.54;94.30
38630;BME280;24384;51.988;4.644;2023-04-22T06:32:33;100768.84;;;8.59;95.36
38630;BME280;24384;51.988;4.644;2023-04-22T06:34:59;100768.44;;;8.75;94.98
38630;BME280;24384;51.988;4.644;2023-04-22T06:37:24;100774.00;;;8.95;93.35
38630;BME280;24384;51.988;4.644;2023-04-22T06:39:51;100769.41;;;9.04;93.45
38630;BME280;24384;51.988;4.644;2023-04-22T06:42:16;100760.91;;;9.25;93.02
38630;BME280;24384;51.988;4.644;2023-04-22T06:44:41;100761.63;;;9.30;93.33
38630;BME280;24384;51.988;4.644;2023-04-22T06:47:06;100759.63;;;9.39;92.46
38630;BME280;24384;51.988;4.644;2023-04-22T06:49:31;100765.81;;;9.38;90.77
38630;BME280;24384;51.988;4.644;2023-04-22T06:51:56;100759.94;;;9.59;90.37
38630;BME280;24384;51.988;4.644;2023-04-22T06:54:22;100753.19;;;9.49;90.88
38630;BME280;24384;51.988;4.644;2023-04-22T06:56:47;100746.53;;;9.67;90.66
38630;BME280;24384;51.988;4.644;2023-04-22T06:59:12;100744.97;;;9.88;89.69
38630;BME280;24384;51.988;4.644;2023-04-22T07:01:37;100748.81;;;10.06;88.98
38630;BME280;24384;51.988;4.644;2023-04-22T07:04:03;100748.16;;;10.26;88.70
38630;BME280;24384;51.988;4.644;2023-04-22T07:06:28;100751.31;;;10.37;88.09
38630;BME280;24384;51.988;4.644;2023-04-22T07:08:53;100752.63;;;10.51;87.14
38630;BME280;24384;51.988;4.644;2023-04-22T07:11:18;100750.91;;;10.50;86.85
38630;BME280;24384;51.988;4.644;2023-04-22T07:13:44;100754.13;;;10.58;85.71
38630;BME280;24384;51.988;4.644;2023-04-22T07:16:10;100744.34;;;10.62;84.50
38630;BME280;24384;51.988;4.644;2023-04-22T07:18:35;100757.09;;;10.74;83.98
38630;BME280;24384;51.988;4.644;2023-04-22T07:21:00;100760.38;;;10.81;86.60
38630;BME280;24384;51.988;4.644;2023-04-22T07:23:26;100757.06;;;10.75;86.63
38630;BME280;24384;51.988;4.644;2023-04-22T07:25:51;100757.63;;;10.33;89.06
38630;BME280;24384;51.988;4.644;2023-04-22T07:28:16;100755.78;;;10.61;87.74
38630;BME280;24384;51.988;4.644;2023-04-22T07:30:41;100756.34;;;10.96;86.19
38630;BME280;24384;51.988;4.644;2023-04-22T07:33:07;100770.97;;;11.04;86.27
38630;BME280;24384;51.988;4.644;2023-04-22T07:35:32;100766.72;;;10.75;88.63
38630;BME280;24384;51.988;4.644;2023-04-22T07:37:57;100767.97;;;10.90;87.62
38630;BME280;24384;51.988;4.644;2023-04-22T07:40:22;100772.88;;;10.75;88.48
38630;BME280;24384;51.988;4.644;2023-04-22T07:42:47;100763.69;;;10.86;89.66
38630;BME280;24384;51.988;4.644;2023-04-22T07:45:12;100760.41;;;11.04;88.28
38630;BME280;24384;51.988;4.644;2023-04-22T07:47:38;100757.97;;;11.23;87.61
38630;BME280;24384;51.988;4.644;2023-04-22T07:50:03;100763.75;;;11.33;87.49
38630;BME280;24384;51.988;4.644;2023-04-22T07:52:29;100761.22;;;11.54;86.49
38630;BME280;24384;51.988;4.644;2023-04-22T07:54:54;100744.88;;;11.90;84.06
38630;BME280;24384;51.988;4.644;2023-04-22T07:57:20;100747.88;;;11.80;81.99
38630;BME280;24384;51.988;4.644;2023-04-22T07:59:46;100742.13;;;11.69;83.07
38630;BME280;24384;51.988;4.644;2023-04-22T08:02:11;100731.84;;;11.85;83.50
38630;BME280;24384;51.988;4.644;2023-04-22T08:04:36;100733.78;;;12.24;81.68
38630;BME280;24384;51.988;4.644;2023-04-22T08:07:02;100715.50;;;12.61;82.64
38630;BME280;24384;51.988;4.644;2023-04-22T08:09:27;100710.63;;;12.91;79.61
38630;BME280;24384;51.988;4.644;2023-04-22T08:11:53;100694.34;;;13.57;77.21
38630;BME280;24384;51.988;4.644;2023-04-22T08:14:18;100713.09;;;14.08;74.17
38630;BME280;24384;51.988;4.644;2023-04-22T08:16:43;100719.19;;;14.10;74.12
38630;BME280;24384;51.988;4.644;2023-04-22T08:19:08;100719.81;;;14.33;74.44
38630;BME280;24384;51.988;4.644;2023-04-22T08:21:33;100714.97;;;13.89;73.54
38630;BME280;24384;51.988;4.644;2023-04-22T08:24:00;100719.13;;;14.29;72.66
38630;BME280;24384;51.988;4.644;2023-04-22T08:26:26;100724.66;;;14.60;71.47
38630;BME280;24384;51.988;4.644;2023-04-22T08:28:51;100734.03;;;14.32;74.61
38630;BME280;24384;51.988;4.644;2023-04-22T08:31:16;100720.63;;;15.03;72.80
38630;BME280;24384;51.988;4.644;2023-04-22T08:33:41;100719.03;;;14.48;71.29
38630;BME280;24384;51.988;4.644;2023-04-22T08:36:07;100723.50;;;14.30;71.69
38630;BME280;24384;51.988;4.644;2023-04-22T08:38:33;100721.38;;;14.55;72.83
38630;BME280;24384;51.988;4.644;2023-04-22T08:40:58;100721.16;;;14.77;72.35
38630;BME280;24384;51.988;4.644;2023-04-22T08:43:24;100704.94;;;15.32;70.76
38630;BME280;24384;51.988;4.644;2023-04-22T08:45:49;100714.16;;;15.09;68.17
38630;BME280;24384;51.988;4.644;2023-04-22T08:48:16;100709.63;;;15.27;66.71
38630;BME280;24384;51.988;4.644;2023-04-22T08:50:42;100701.03;;;15.06;68.59
38630;BME280;24384;51.988;4.644;2023-04-22T08:53:08;100696.31;;;15.27;69.64
38630;BME280;24384;51.988;4.644;2023-04-22T08:55:33;100695.22;;;14.82;68.15
38630;BME280;24384;51.988;4.644;2023-04-22T08:58:00;100687.63;;;14.92;69.62
38630;BME280;24384;51.988;4.644;2023-04-22T09:00:27;100683.16;;;15.42;67.79
38630;BME280;24384;51.988;4.644;2023-04-22T09:02:52;100670.59;;;15.60;66.44
38630;BME280;24384;51.988;4.644;2023-04-22T09:05:18;100667.69;;;15.00;68.28
38630;BME280;24384;51.988;4.644;2023-04-22T09:07:46;100655.38;;;15.63;65.96
38630;BME280;24384;51.988;4.644;2023-04-22T09:10:12;100658.88;;;16.10;64.87
38630;BME280;24384;51.988;4.644;2023-04-22T09:12:39;100652.84;;;15.76;63.69
38630;BME280;24384;51.988;4.644;2023-04-22T09:15:05;100645.50;;;15.33;67.49
38630;BME280;24384;51.988;4.644;2023-04-22T09:17:34;100624.00;;;15.54;66.16
38630;BME280;24384;51.988;4.644;2023-04-22T09:20:02;100622.09;;;15.56;66.80
38630;BME280;24384;51.988;4.644;2023-04-22T09:22:28;100622.56;;;15.32;68.49
38630;BME280;24384;51.988;4.644;2023-04-22T09:25:01;100616.78;;;15.24;67.52
38630;BME280;24384;51.988;4.644;2023-04-22T09:27:27;100620.75;;;15.17;68.43
38630;BME280;24384;51.988;4.644;2023-04-22T09:29:52;100627.69;;;15.35;67.66
38630;BME280;24384;51.988;4.644;2023-04-22T09:32:18;100625.88;;;15.36;69.41
38630;BME280;24384;51.988;4.644;2023-04-22T09:34:50;100643.88;;;15.47;68.65
38630;BME280;24384;51.988;4.644;2023-04-22T09:37:19;100639.25;;;15.66;68.12
38630;BME280;24384;51.988;4.644;2023-04-22T09:39:47;100654.91;;;15.55;65.89
38630;BME280;24384;51.988;4.644;2023-04-22T09:42:13;100661.09;;;15.87;66.00
38630;BME280;24384;51.988;4.644;2023-04-22T09:44:38;100658.63;;;16.29;65.36
38630;BME280;24384;51.988;4.644;2023-04-22T09:47:03;100668.28;;;16.60;63.72
38630;BME280;24384;51.988;4.644;2023-04-22T09:49:30;100669.06;;;16.18;66.26
38630;BME280;24384;51.988;4.644;2023-04-22T09:52:02;100672.78;;;16.29;64.44
38630;BME280;24384;51.988;4.644;2023-04-22T09:54:30;100681.38;;;16.04;65.05
38630;BME280;24384;51.988;4.644;2023-04-22T09:56:55;100683.47;;;15.99;64.29
38630;BME280;24384;51.988;4.644;2023-04-22T09:59:27;100687.69;;;16.18;64.96
38630;BME280;24384;51.988;4.644;2023-04-22T10:01:54;100685.03;;;15.71;67.64
38630;BME280;24384;51.988;4.644;2023-04-22T10:04:19;100688.25;;;15.92;66.08
38630;BME280;24384;51.988;4.644;2023-04-22T10:06:49;100682.13;;;16.37;64.00
38630;BME280;24384;51.988;4.644;2023-04-22T10:09:18;100678.19;;;16.14;65.42
38630;BME280;24384;51.988;4.644;2023-04-22T10:11:44;100669.00;;;16.34;66.11
38630;BME280;24384;51.988;4.644;2023-04-22T10:14:09;100673.66;;;16.00;65.84
38630;BME280;24384;51.988;4.644;2023-04-22T10:16:35;100678.50;;;15.93;66.37
38630;BME280;24384;51.988;4.644;2023-04-22T10:19:03;100673.81;;;15.82;66.59
38630;BME280;24384;51.988;4.644;2023-04-22T10:21:30;100665.56;;;15.55;67.23
38630;BME280;24384;51.988;4.644;2023-04-22T10:23:57;100672.84;;;15.51;68.99
38630;BME280;24384;51.988;4.644;2023-04-22T10:26:38;100684.50;;;15.49;68.73
38630;BME280;24384;51.988;4.644;2023-04-22T10:29:09;100687.09;;;15.34;68.50
38630;BME280;24384;51.988;4.644;2023-04-22T10:31:36;100694.25;;;15.16;68.76
38630;BME280;24384;51.988;4.644;2023-04-22T10:34:09;100689.78;;;15.01;68.57
38630;BME280;24384;51.988;4.644;2023-04-22T10:36:50;100706.13;;;14.93;69.91
38630;BME280;24384;51.988;4.644;2023-04-22T10:39:16;100691.91;;;14.78;70.63
38630;BME280;24384;51.988;4.644;2023-04-22T10:41:44;100689.88;;;14.66;70.72
38630;BME280;24384;51.988;4.644;2023-04-22T10:44:14;100701.66;;;14.60;72.12
38630;BME280;24384;51.988;4.644;2023-04-22T10:46:54;100700.06;;;14.56;72.07
38630;BME280;24384;51.988;4.644;2023-04-22T10:49:26;100700.72;;;14.26;71.25
38630;BME280;24384;51.988;4.644;2023-04-22T10:51:56;100698.84;;;14.11;73.01
38630;BME280;24384;51.988;4.644;2023-04-22T10:57:09;100679.81;;;14.20;70.89
38630;BME280;24384;51.988;4.644;2023-04-22T10:59:45;100688.91;;;14.14;71.60
38630;BME280;24384;51.988;4.644;2023-04-22T11:02:10;100672.94;;;13.99;70.86
38630;BME280;24384;51.988;4.644;2023-04-22T11:04:37;100666.84;;;14.14;71.67
38630;BME280;24384;51.988;4.644;2023-04-22T11:09:52;100673.78;;;13.99;75.88
38630;BME280;24384;51.988;4.644;2023-04-22T11:15:09;100708.97;;;14.03;75.65
38630;BME280;24384;51.988;4.644;2023-04-22T11:17:35;100706.09;;;13.71;75.58
38630;BME280;24384;51.988;4.644;2023-04-22T11:20:02;100709.66;;;13.70;75.57
38630;BME280;24384;51.988;4.644;2023-04-22T11:22:28;100690.34;;;13.68;78.35
38630;BME280;24384;51.988;4.644;2023-04-22T11:24:59;100716.22;;;13.63;79.33
38630;BME280;24384;51.988;4.644;2023-04-22T11:27:24;100724.00;;;13.28;81.71
38630;BME280;24384;51.988;4.644;2023-04-22T11:32:28;100727.47;;;12.90;80.65
38630;BME280;24384;51.988;4.644;2023-04-22T11:34:54;100729.50;;;12.83;82.55
38630;BME280;24384;51.988;4.644;2023-04-22T11:37:19;100725.00;;;12.85;84.22
38630;BME280;24384;51.988;4.644;2023-04-22T11:39:45;100722.22;;;12.88;85.13
38630;BME280;24384;51.988;4.644;2023-04-22T11:42:14;100711.38;;;12.95;85.01
38630;BME280;24384;51.988;4.644;2023-04-22T11:44:40;100698.34;;;12.90;83.65
38630;BME280;24384;51.988;4.644;2023-04-22T11:47:09;100711.09;;;13.01;83.21
38630;BME280;24384;51.988;4.644;2023-04-22T11:49:37;100725.28;;;12.79;81.87
38630;BME280;24384;51.988;4.644;2023-04-22T11:52:05;100720.78;;;12.40;85.06
38630;BME280;24384;51.988;4.644;2023-04-22T11:54:33;100708.16;;;12.67;85.64
38630;BME280;24384;51.988;4.644;2023-04-22T11:57:02;100696.72;;;12.67;87.03
38630;BME280;24384;51.988;4.644;2023-04-22T11:59:27;100704.84;;;12.62;87.15
38630;BME280;24384;51.988;4.644;2023-04-22T12:01:53;100722.25;;;12.47;86.55
38630;BME280;24384;51.988;4.644;2023-04-22T12:04:21;100731.34;;;12.20;85.84
38630;BME280;24384;51.988;4.644;2023-04-22T12:06:48;100730.44;;;11.98;87.33
38630;BME280;24384;51.988;4.644;2023-04-22T12:09:13;100694.00;;;12.07;88.32
38630;BME280;24384;51.988;4.644;2023-04-22T12:11:38;100666.59;;;12.30;88.62
38630;BME280;24384;51.988;4.644;2023-04-22T12:14:04;100661.94;;;12.35;90.01
38630;BME280;24384;51.988;4.644;2023-04-22T12:16:37;100660.94;;;12.58;88.37
38630;BME280;24384;51.988;4.644;2023-04-22T12:19:03;100660.75;;;12.42;86.64
38630;BME280;24384;51.988;4.644;2023-04-22T12:21:28;100664.91;;;12.48;86.75
38630;BME280;24384;51.988;4.644;2023-04-22T12:23:57;100679.94;;;12.27;87.48
38630;BME280;24384;51.988;4.644;2023-04-22T12:26:24;100698.31;;;12.50;87.32
38630;BME280;24384;51.988;4.644;2023-04-22T12:28:51;100707.41;;;12.43;86.78
38630;BME280;24384;51.988;4.644;2023-04-22T12:31:16;100700.81;;;12.33;87.58
38630;BME280;24384;51.988;4.644;2023-04-22T12:33:42;100698.38;;;12.28;88.11
38630;BME280;24384;51.988;4.644;2023-04-22T12:36:07;100696.72;;;12.26;87.60
38630;BME280;24384;51.988;4.644;2023-04-22T12:38:34;100694.41;;;12.39;86.52
38630;BME280;24384;51.988;4.644;2023-04-22T12:41:00;100697.38;;;12.51;87.64
38630;BME280;24384;51.988;4.644;2023-04-22T12:43:25;100696.19;;;12.59;87.19
38630;BME280;24384;51.988;4.644;2023-04-22T12:45:51;100702.91;;;12.86;84.72
38630;BME280;24384;51.988;4.644;2023-04-22T12:48:16;100694.41;;;12.99;84.44
38630;BME280;24384;51.988;4.644;2023-04-22T12:50:41;100698.28;;;12.92;84.65
38630;BME280;24384;51.988;4.644;2023-04-22T12:53:07;100681.69;;;13.26;83.64
38630;BME280;24384;51.988;4.644;2023-04-22T12:55:32;100680.56;;;13.32;83.02
38630;BME280;24384;51.988;4.644;2023-04-22T12:57:58;100688.38;;;13.35;83.16
38630;BME280;24384;51.988;4.644;2023-04-22T13:00:23;100704.38;;;13.32;83.30